Time;durP1;ratioP1;P1;durP2;ratioP2;P2;SDS_P1;SDS_P2;PMS_P1;PMS_P2;Temp;Humidity;BMP_temperature;BMP_pressure;BME280_temperature;BME280_humidity;BME280_pressure;Samples;Min_cycle;Max_cycle;Signal;HPM_P1;HPM_P2
2021/01/07 00:02:15;;;;;;;4.93;1.30;;;20.70;45.10;;;;;;5114032;27;20583;-36
2021/01/07 00:04:41;;;;;;;1.95;1.27;;;20.70;45.00;;;;;;5112848;28;20081;-49
2021/01/07 00:07:06;;;;;;;4.25;1.20;;;20.70;45.10;;;;;;5111939;28;20666;-43
2021/01/07 00:09:32;;;;;;;1.45;1.00;;;20.70;45.00;;;;;;5113126;28;20019;-37
2021/01/07 00:11:58;;;;;;;2.72;0.82;;;20.70;44.90;;;;;;5112092;28;20480;-46
2021/01/07 00:14:23;;;;;;;3.17;2.13;;;20.70;44.90;;;;;;5113200;28;20130;-45
2021/01/07 00:16:50;;;;;;;1.73;1.10;;;20.70;44.90;;;;;;5112393;28;20423;-59
2021/01/07 00:19:15;;;;;;;2.15;1.05;;;20.70;44.80;;;;;;5113287;28;20098;-43
2021/01/07 00:21:41;;;;;;;2.10;1.15;;;20.60;44.80;;;;;;5111815;28;20024;-46
2021/01/07 00:24:07;;;;;;;1.23;0.95;;;20.70;44.80;;;;;;5112652;28;20623;-40
2021/01/07 00:26:33;;;;;;;1.73;1.00;;;20.60;44.60;;;;;;5109618;27;20377;-44
2021/01/07 00:28:59;;;;;;;1.75;1.15;;;20.60;44.60;;;;;;5110379;28;20035;-49
2021/01/07 00:31:25;;;;;;;4.50;0.90;;;20.60;44.60;;;;;;5113828;27;20036;-53
2021/01/07 00:33:51;;;;;;;3.38;1.00;;;20.60;44.60;;;;;;5112387;28;20032;-60
2021/01/07 00:36:19;;;;;;;2.05;1.05;;;20.60;44.60;;;;;;5111902;28;20035;-41
2021/01/07 00:38:45;;;;;;;1.30;0.90;;;20.60;44.50;;;;;;5112920;28;20102;-44
2021/01/07 00:41:16;;;;;;;1.98;1.10;;;20.60;44.50;;;;;;5111140;28;20296;-52
2021/01/07 00:43:42;;;;;;;2.13;0.93;;;20.70;44.50;;;;;;5113124;28;20380;-42
2021/01/07 00:46:09;;;;;;;1.30;0.90;;;20.60;44.40;;;;;;5112041;28;20020;-47
2021/01/07 00:48:34;;;;;;;1.85;0.90;;;20.60;44.50;;;;;;5112638;28;20039;-42
2021/01/07 00:51:00;;;;;;;1.30;1.00;;;20.60;44.40;;;;;;5112193;28;20023;-41
2021/01/07 00:53:26;;;;;;;0.90;0.73;;;20.60;44.40;;;;;;5111500;28;20357;-44
2021/01/07 00:55:51;;;;;;;1.42;0.88;;;20.60;44.40;;;;;;5111917;28;20030;-60
2021/01/07 00:58:17;;;;;;;1.25;1.05;;;20.60;44.40;;;;;;5110347;27;20035;-45
2021/01/07 01:00:43;;;;;;;2.60;0.90;;;20.70;44.30;;;;;;5115772;27;20706;-45
2021/01/07 01:03:08;;;;;;;2.13;1.13;;;20.60;44.20;;;;;;5114785;27;20016;-39
2021/01/07 01:05:34;;;;;;;1.98;0.98;;;20.70;44.20;;;;;;5112462;28;20441;-44
2021/01/07 01:08:00;;;;;;;1.65;1.05;;;20.60;44.30;;;;;;5111684;28;20027;-47
2021/01/07 01:10:26;;;;;;;2.08;1.00;;;20.60;44.20;;;;;;5112379;28;20024;-46
2021/01/07 01:12:51;;;;;;;2.67;1.40;;;20.60;44.20;;;;;;5111457;28;20168;-64
2021/01/07 01:15:17;;;;;;;1.98;0.98;;;20.70;44.20;;;;;;5112321;28;20380;-40
2021/01/07 01:17:43;;;;;;;1.80;1.00;;;20.60;44.10;;;;;;5112069;28;20388;-43
2021/01/07 01:20:11;;;;;;;2.28;1.10;;;20.70;44.10;;;;;;5108121;28;20467;-44
2021/01/07 01:22:38;;;;;;;1.73;0.80;;;20.70;44.00;;;;;;5112185;28;20076;-45
2021/01/07 01:25:09;;;;;;;1.55;1.00;;;20.70;44.10;;;;;;5111328;28;20032;-45
2021/01/07 01:27:40;;;;;;;1.00;0.90;;;20.70;44.00;;;;;;5112576;27;20116;-36
2021/01/07 01:30:08;;;;;;;1.90;1.10;;;20.70;44.00;;;;;;5110212;28;20227;-42
2021/01/07 01:32:35;;;;;;;1.45;1.02;;;20.70;44.00;;;;;;5111890;28;20031;-43
2021/01/07 01:35:01;;;;;;;1.30;1.20;;;20.70;43.90;;;;;;5110897;28;20739;-53
2021/01/07 01:37:26;;;;;;;2.50;1.00;;;20.70;44.00;;;;;;5111306;28;20084;-44
2021/01/07 01:39:52;;;;;;;1.98;0.98;;;20.70;43.80;;;;;;5110883;28;20020;-48
2021/01/07 01:42:25;;;;;;;1.45;0.90;;;20.70;43.90;;;;;;5110760;28;20397;-40
2021/01/07 01:44:52;;;;;;;1.42;1.00;;;20.70;43.90;;;;;;5108686;28;20027;-58
2021/01/07 01:47:17;;;;;;;1.40;0.93;;;20.70;43.80;;;;;;5110677;28;20064;-44
2021/01/07 01:49:46;;;;;;;1.95;1.02;;;20.70;43.80;;;;;;5111250;28;20051;-44
2021/01/07 01:52:11;;;;;;;1.95;1.02;;;20.70;43.80;;;;;;5111025;28;20260;-49
2021/01/07 01:54:37;;;;;;;2.95;1.58;;;20.70;43.70;;;;;;5110274;28;20509;-43
2021/01/07 01:57:06;;;;;;;2.50;1.10;;;20.70;43.70;;;;;;5112582;27;20069;-44
2021/01/07 01:59:33;;;;;;;2.35;0.90;;;20.70;43.70;;;;;;5111378;28;20035;-50
2021/01/07 02:02:15;;;;;;;1.20;1.02;;;20.70;43.70;;;;;;5107726;28;20051;-52
2021/01/07 02:04:42;;;;;;;2.63;1.05;;;20.70;43.60;;;;;;5110604;28;20047;-50
2021/01/07 02:07:11;;;;;;;2.33;0.90;;;20.80;43.70;;;;;;5110603;28;20850;-44
2021/01/07 02:09:38;;;;;;;2.33;1.05;;;20.70;43.60;;;;;;5110942;28;20028;-45
2021/01/07 02:12:04;;;;;;;3.15;2.05;;;20.70;43.60;;;;;;5110192;28;20063;-40
2021/01/07 02:14:30;;;;;;;1.00;0.90;;;20.80;43.60;;;;;;5111010;28;20066;-47
2021/01/07 02:16:55;;;;;;;1.23;1.00;;;20.70;43.50;;;;;;5110775;28;20059;-44
2021/01/07 02:19:24;;;;;;;1.40;1.00;;;20.80;43.60;;;;;;5111071;28;20552;-45
2021/01/07 02:21:50;;;;;;;2.65;1.48;;;20.80;43.50;;;;;;5110583;28;20020;-60
2021/01/07 02:24:17;;;;;;;1.30;0.95;;;20.80;43.50;;;;;;5109491;28;20027;-43
2021/01/07 02:26:44;;;;;;;1.13;0.80;;;20.80;43.50;;;;;;5113172;27;20035;-44
2021/01/07 02:29:09;;;;;;;1.77;1.05;;;20.80;43.50;;;;;;5110656;28;20027;-42
2021/01/07 02:31:35;;;;;;;1.63;1.05;;;20.80;43.50;;;;;;5109863;28;20376;-41
2021/01/07 02:34:01;;;;;;;2.13;0.95;;;20.80;43.40;;;;;;5110319;28;20581;-41
2021/01/07 02:36:27;;;;;;;2.25;0.70;;;20.80;43.50;;;;;;5110890;28;20053;-53
2021/01/07 02:38:53;;;;;;;1.80;0.98;;;20.80;43.50;;;;;;5110469;28;20099;-59
2021/01/07 02:41:18;;;;;;;2.50;1.00;;;20.80;43.40;;;;;;5112155;28;20024;-43
2021/01/07 02:43:44;;;;;;;1.48;1.00;;;20.80;43.40;;;;;;5112267;28;20031;-41
2021/01/07 02:46:09;;;;;;;1.05;0.90;;;20.80;43.30;;;;;;5111342;28;20108;-43
2021/01/07 02:48:35;;;;;;;1.65;0.95;;;20.80;43.30;;;;;;5113147;28;20430;-44
2021/01/07 02:51:01;;;;;;;1.38;0.80;;;20.80;43.30;;;;;;5115465;28;20047;-48
2021/01/07 02:53:26;;;;;;;1.92;1.10;;;20.80;43.30;;;;;;5116695;28;20027;-44
2021/01/07 02:55:52;;;;;;;2.97;1.30;;;20.80;43.30;;;;;;5115758;28;20028;-59
2021/01/07 02:58:18;;;;;;;1.00;0.90;;;20.80;43.40;;;;;;5116337;27;20028;-43
2021/01/07 03:00:43;;;;;;;0.95;0.73;;;20.80;43.30;;;;;;5114663;28;20032;-44
2021/01/07 03:03:09;;;;;;;1.05;0.80;;;20.80;43.30;;;;;;5115675;28;20276;-43
2021/01/07 03:05:35;;;;;;;1.13;0.82;;;20.80;43.30;;;;;;5116343;28;20478;-42
2021/01/07 03:08:00;;;;;;;1.00;0.70;;;20.80;43.30;;;;;;5115300;28;20036;-43
2021/01/07 03:10:26;;;;;;;1.73;1.08;;;20.80;43.30;;;;;;5116152;28;20085;-48
2021/01/07 03:12:52;;;;;;;1.40;0.85;;;20.80;43.20;;;;;;5115154;28;20044;-59
2021/01/07 03:15:17;;;;;;;1.40;0.90;;;20.80;43.30;;;;;;5115522;28;20456;-49
2021/01/07 03:17:45;;;;;;;1.38;1.00;;;20.80;43.90;;;;;;5111541;28;20468;-44
2021/01/07 03:20:12;;;;;;;1.60;1.00;;;20.80;43.30;;;;;;5114920;27;20096;-41
2021/01/07 03:22:42;;;;;;;2.33;0.90;;;20.80;43.20;;;;;;5115486;28;20039;-45
2021/01/07 03:25:10;;;;;;;2.42;0.95;;;20.80;43.20;;;;;;5115029;28;20384;-42
2021/01/07 03:27:36;;;;;;;1.35;0.90;;;20.80;43.20;;;;;;5126718;27;20039;-43
2021/01/07 03:30:07;;;;;;;2.30;0.98;;;20.80;43.10;;;;;;5135484;27;20027;-43
2021/01/07 03:32:34;;;;;;;1.10;0.80;;;20.80;43.10;;;;;;5136155;27;20460;-43
2021/01/07 03:35:00;;;;;;;1.23;1.00;;;20.80;43.10;;;;;;5135408;27;20023;-43
2021/01/07 03:37:25;;;;;;;1.20;0.77;;;20.80;43.20;;;;;;5135020;27;20514;-43
2021/01/07 03:39:51;;;;;;;1.60;0.90;;;20.80;43.30;;;;;;5135821;27;20019;-59
2021/01/07 03:42:16;;;;;;;3.33;1.00;;;20.80;43.20;;;;;;5135874;27;20076;-43
2021/01/07 03:44:42;;;;;;;1.83;1.25;;;20.80;43.10;;;;;;5135263;27;20361;-43
2021/01/07 03:47:08;;;;;;;0.90;0.80;;;20.80;43.10;;;;;;5134796;27;20031;-44
2021/01/07 03:49:33;;;;;;;1.30;1.00;;;20.80;43.20;;;;;;5135649;27;20476;-43
2021/01/07 03:51:59;;;;;;;0.80;0.77;;;20.80;43.10;;;;;;5134963;27;20019;-54
2021/01/07 03:54:25;;;;;;;1.00;0.88;;;20.80;43.20;;;;;;5135650;27;20027;-47
2021/01/07 03:56:50;;;;;;;0.88;0.75;;;20.80;43.20;;;;;;5128397;27;20032;-59
2021/01/07 03:59:16;;;;;;;2.90;0.98;;;20.80;43.10;;;;;;5111708;27;20027;-42
2021/01/07 04:01:42;;;;;;;0.73;0.63;;;20.80;43.10;;;;;;5114545;28;20392;-44
2021/01/07 04:04:07;;;;;;;1.52;0.95;;;20.80;43.10;;;;;;5114485;28;20061;-43
2021/01/07 04:06:33;;;;;;;1.63;0.85;;;20.80;43.20;;;;;;5115114;28;20046;-41
2021/01/07 04:08:59;;;;;;;8.20;1.45;;;20.80;43.00;;;;;;5114207;28;20078;-43
2021/01/07 04:11:25;;;;;;;1.10;0.90;;;20.80;43.00;;;;;;5114781;28;20057;-43
2021/01/07 04:13:50;;;;;;;2.25;1.15;;;20.80;43.10;;;;;;5114793;28;20476;-43
2021/01/07 04:16:16;;;;;;;1.05;0.70;;;20.80;43.10;;;;;;5114851;28;20062;-43
2021/01/07 04:18:41;;;;;;;1.10;0.90;;;20.80;43.00;;;;;;5115117;28;20517;-43
2021/01/07 04:21:07;;;;;;;1.80;0.85;;;20.80;43.10;;;;;;5113961;28;20024;-43
2021/01/07 04:23:33;;;;;;;1.27;0.95;;;20.80;43.10;;;;;;5114682;28;20050;-41
2021/01/07 04:25:59;;;;;;;1.55;1.00;;;20.80;43.10;;;;;;5114155;28;20024;-43
2021/01/07 04:28:25;;;;;;;1.25;0.75;;;20.90;43.00;;;;;;5132007;27;20139;-46
2021/01/07 04:30:50;;;;;;;1.35;0.70;;;20.80;43.10;;;;;;5134806;27;20484;-43
2021/01/07 04:33:17;;;;;;;0.98;0.80;;;20.80;43.00;;;;;;5134158;27;20063;-39
2021/01/07 04:35:43;;;;;;;1.30;0.93;;;20.80;43.00;;;;;;5135081;27;20027;-43
2021/01/07 04:38:09;;;;;;;1.10;0.68;;;20.80;43.10;;;;;;5134073;27;20027;-43
2021/01/07 04:40:35;;;;;;;1.40;0.73;;;20.80;43.00;;;;;;5134966;27;20058;-43
2021/01/07 04:43:01;;;;;;;1.08;0.80;;;20.80;43.00;;;;;;5133940;27;20053;-43
2021/01/07 04:45:26;;;;;;;0.85;0.70;;;20.80;43.00;;;;;;5134900;27;20031;-43
2021/01/07 04:47:53;;;;;;;1.05;0.80;;;20.80;43.00;;;;;;5134840;27;20031;-59
2021/01/07 04:50:19;;;;;;;0.77;0.77;;;20.90;43.00;;;;;;5134686;27;20031;-43
2021/01/07 04:52:44;;;;;;;2.13;0.95;;;20.80;43.00;;;;;;5134419;27;20400;-43
2021/01/07 04:55:11;;;;;;;0.90;0.80;;;20.90;42.90;;;;;;5133530;27;20023;-43
2021/01/07 04:57:36;;;;;;;1.67;0.95;;;20.90;42.90;;;;;;5118864;27;20081;-43
2021/01/07 05:00:06;;;;;;;1.20;0.90;;;20.90;43.00;;;;;;5112441;28;20439;-43
2021/01/07 05:02:32;;;;;;;1.88;0.70;;;20.90;43.00;;;;;;5112598;28;20027;-43
2021/01/07 05:04:58;;;;;;;0.80;0.70;;;20.90;43.00;;;;;;5113351;28;20525;-43
2021/01/07 05:07:24;;;;;;;1.30;0.90;;;20.90;42.90;;;;;;5112388;28;20111;-37
2021/01/07 05:10:01;;;;;;;1.88;0.90;;;20.90;42.90;;;;;;5113831;28;20023;-43
2021/01/07 05:12:27;;;;;;;1.63;0.80;;;20.90;43.00;;;;;;5113064;28;20047;-40
2021/01/07 05:14:52;;;;;;;1.25;0.80;;;20.90;42.90;;;;;;5113505;28;20027;-59
2021/01/07 05:17:18;;;;;;;3.72;0.80;;;20.80;42.80;;;;;;5113097;28;20089;-43
2021/01/07 05:19:44;;;;;;;1.15;0.70;;;20.90;42.80;;;;;;5113774;28;20450;-43
2021/01/07 05:22:09;;;;;;;1.45;0.70;;;20.90;42.80;;;;;;5112849;28;20035;-43
2021/01/07 05:24:37;;;;;;;0.90;0.82;;;20.90;42.90;;;;;;5113425;28;20101;-41
2021/01/07 05:27:10;;;;;;;1.15;0.90;;;20.90;42.90;;;;;;5106469;28;20039;-52
2021/01/07 05:29:38;;;;;;;0.82;0.68;;;20.90;42.80;;;;;;5108623;27;20028;-43
2021/01/07 05:32:04;;;;;;;0.85;0.80;;;20.90;42.90;;;;;;5112027;28;20099;-43
2021/01/07 05:34:29;;;;;;;1.27;0.95;;;20.80;42.80;;;;;;5113396;28;20027;-43
2021/01/07 05:36:59;;;;;;;1.92;0.90;;;20.90;42.90;;;;;;5113008;28;20027;-58
2021/01/07 05:39:34;;;;;;;2.97;0.85;;;20.90;42.90;;;;;;5113118;28;20027;-48
2021/01/07 05:42:03;;;;;;;1.33;0.77;;;20.90;42.90;;;;;;5112240;28;20438;-41
2021/01/07 05:44:32;;;;;;;1.27;0.80;;;20.90;42.90;;;;;;5113107;27;20031;-43
2021/01/07 05:46:58;;;;;;;0.93;0.80;;;20.90;42.80;;;;;;5111984;28;20031;-59
2021/01/07 05:49:37;;;;;;;2.08;0.80;;;20.90;42.90;;;;;;5113185;28;20024;-41
2021/01/07 05:52:07;;;;;;;1.38;0.60;;;20.90;42.90;;;;;;5112400;28;20023;-43
2021/01/07 05:54:33;;;;;;;1.08;0.80;;;20.90;42.80;;;;;;5113076;28;20019;-41
2021/01/07 05:57:06;;;;;;;1.85;0.75;;;20.90;42.80;;;;;;5117283;27;20027;-43
2021/01/07 05:59:35;;;;;;;1.13;0.80;;;20.90;42.80;;;;;;5133652;27;20035;-43
2021/01/07 06:02:03;;;;;;;0.90;0.80;;;20.90;42.80;;;;;;5131049;27;20071;-50
2021/01/07 06:04:32;;;;;;;1.67;1.00;;;20.90;42.70;;;;;;5133494;27;20044;-42
2021/01/07 06:06:59;;;;;;;1.20;0.85;;;20.90;43.30;;;;;;5127222;27;20495;-57
2021/01/07 06:09:29;;;;;;;2.35;1.00;;;20.90;42.70;;;;;;5112792;28;20490;-41
2021/01/07 06:11:58;;;;;;;1.13;1.00;;;20.90;42.70;;;;;;5111961;28;20052;-58
2021/01/07 06:14:24;;;;;;;1.10;0.90;;;20.90;42.60;;;;;;5112734;28;20054;-41
2021/01/07 06:16:55;;;;;;;1.50;1.02;;;20.90;42.70;;;;;;5112439;28;20032;-41
2021/01/07 06:19:39;;;;;;;1.30;0.90;;;20.90;42.70;;;;;;5112174;28;20088;-42
2021/01/07 06:22:14;;;;;;;2.40;0.80;;;20.90;42.70;;;;;;5111783;28;20028;-40
2021/01/07 06:24:41;;;;;;;1.20;0.90;;;20.90;42.60;;;;;;5112215;28;20027;-43
2021/01/07 06:27:32;;;;;;;1.42;0.80;;;20.90;42.60;;;;;;5107529;28;20039;-57
2021/01/07 06:30:07;;;;;;;1.35;0.80;;;20.90;42.60;;;;;;5111293;28;20081;-57
2021/01/07 06:32:36;;;;;;;3.08;1.20;;;20.90;42.60;;;;;;5112053;28;20027;-43
2021/01/07 06:35:10;;;;;;;1.50;1.10;;;20.90;42.70;;;;;;5111816;28;20391;-43
2021/01/07 06:37:47;;;;;;;2.03;1.40;;;20.90;42.60;;;;;;5112743;28;20039;-42
2021/01/07 06:40:14;;;;;;;2.33;1.20;;;20.90;42.70;;;;;;5111738;28;20462;-43
2021/01/07 06:42:49;;;;;;;1.88;1.00;;;20.90;42.60;;;;;;5111874;28;20023;-36
2021/01/07 06:45:15;;;;;;;1.25;0.98;;;20.90;42.60;;;;;;5111639;28;20106;-43
2021/01/07 06:47:46;;;;;;;1.58;1.23;;;20.90;42.60;;;;;;5112084;28;20093;-42
2021/01/07 06:50:14;;;;;;;1.30;0.90;;;20.90;42.60;;;;;;5111295;28;20020;-43
2021/01/07 06:52:44;;;;;;;2.20;1.02;;;20.90;42.60;;;;;;5112152;28;20032;-44
2021/01/07 06:55:12;;;;;;;2.72;1.00;;;20.90;42.60;;;;;;5111528;28;20031;-41
2021/01/07 06:57:44;;;;;;;0.95;0.85;;;20.90;42.60;;;;;;5105883;28;20111;-39
2021/01/07 07:00:13;;;;;;;1.95;0.90;;;20.90;42.50;;;;;;5111083;28;20031;-50
2021/01/07 07:03:00;;;;;;;1.38;0.90;;;20.90;42.60;;;;;;5112063;28;20026;-44
2021/01/07 07:05:30;;;;;;;1.20;1.10;;;20.90;42.60;;;;;;5112238;28;20066;-44
2021/01/07 07:08:04;;;;;;;2.25;1.40;;;20.90;42.60;;;;;;5111888;28;20039;-59
2021/01/07 07:10:33;;;;;;;1.60;0.88;;;20.90;42.60;;;;;;5111410;28;20035;-45
2021/01/07 07:12:59;;;;;;;2.22;1.30;;;20.90;42.60;;;;;;5111396;28;20068;-57
2021/01/07 07:15:27;;;;;;;1.02;0.88;;;20.90;42.60;;;;;;5112329;28;20035;-44
2021/01/07 07:17:56;;;;;;;3.97;1.05;;;20.90;42.50;;;;;;5110693;28;20469;-41
2021/01/07 07:20:24;;;;;;;2.05;1.27;;;20.90;42.60;;;;;;5111197;28;20072;-45
2021/01/07 07:22:50;;;;;;;1.10;1.00;;;20.90;42.50;;;;;;5114014;28;20487;-38
2021/01/07 07:25:26;;;;;;;1.77;1.33;;;20.90;42.50;;;;;;5131669;27;20600;-41
2021/01/07 07:28:01;;;;;;;1.27;1.00;;;20.90;42.50;;;;;;5131666;27;20039;-42
2021/01/07 07:30:35;;;;;;;1.92;1.02;;;20.90;42.60;;;;;;5132709;27;20030;-55
2021/01/07 07:33:01;;;;;;;0.80;0.70;;;20.90;42.50;;;;;;5131829;27;20107;-58
2021/01/07 07:35:30;;;;;;;1.65;1.08;;;20.90;42.50;;;;;;5134446;27;20075;-40
2021/01/07 07:37:56;;;;;;;1.33;1.10;;;20.90;42.50;;;;;;5136238;27;20035;-44
2021/01/07 07:40:33;;;;;;;1.20;1.05;;;20.90;42.50;;;;;;5135774;27;20027;-44
2021/01/07 07:43:00;;;;;;;1.52;1.10;;;20.90;42.50;;;;;;5135464;27;20384;-58
2021/01/07 07:45:27;;;;;;;2.50;1.00;;;20.90;42.50;;;;;;5136013;27;20094;-42
2021/01/07 07:47:53;;;;;;;2.00;0.98;;;20.90;42.50;;;;;;5136088;27;20027;-44
2021/01/07 07:50:27;;;;;;;1.42;1.30;;;20.90;42.50;;;;;;5133806;27;20635;-39
2021/01/07 07:53:03;;;;;;;1.58;1.10;;;20.90;42.50;;;;;;5136034;27;20028;-46
2021/01/07 07:55:36;;;;;;;2.17;1.23;;;20.90;42.50;;;;;;5122878;27;20030;-43
2021/01/07 07:58:17;;;;;;;2.72;1.15;;;20.90;42.40;;;;;;5107523;27;20039;-53
2021/01/07 08:00:53;;;;;;;2.05;1.20;;;20.90;42.40;;;;;;5094598;28;20028;-49
2021/01/07 08:03:27;;;;;;;1.55;1.00;;;20.90;42.40;;;;;;5111262;28;20360;-44
2021/01/07 08:05:54;;;;;;;1.75;1.17;;;20.90;42.50;;;;;;5111012;28;20397;-49
2021/01/07 08:08:25;;;;;;;1.65;1.30;;;20.90;42.50;;;;;;5113202;28;20031;-44
2021/01/07 08:10:52;;;;;;;2.05;1.20;;;20.90;42.40;;;;;;5117260;27;20188;-46
2021/01/07 08:13:20;;;;;;;1.30;1.00;;;20.90;42.50;;;;;;5134362;27;20615;-38
2021/01/07 08:15:47;;;;;;;1.83;1.35;;;20.90;42.40;;;;;;5135363;27;20035;-40
2021/01/07 08:18:17;;;;;;;1.88;1.33;;;21.00;42.50;;;;;;5133484;27;20079;-38
2021/01/07 08:20:43;;;;;;;2.22;1.38;;;21.00;42.50;;;;;;5135156;27;20027;-42
2021/01/07 08:23:10;;;;;;;2.95;1.30;;;21.00;42.60;;;;;;5130840;27;20138;-41
2021/01/07 08:25:37;;;;;;;4.03;1.40;;;21.00;42.70;;;;;;5111643;27;20500;-41
2021/01/07 08:28:20;;;;;;;2.42;1.05;;;21.10;42.90;;;;;;5127382;27;20131;-56
2021/01/07 08:30:54;;;;;;;9.90;1.67;;;21.00;43.20;;;;;;5135284;27;20104;-42
2021/01/07 08:33:22;;;;;;;1.95;1.30;;;21.10;43.30;;;;;;5134241;27;20076;-42
2021/01/07 08:35:49;;;;;;;1.95;1.50;;;21.10;43.40;;;;;;5135072;27;20023;-42
2021/01/07 08:38:26;;;;;;;6.05;1.50;;;21.10;43.50;;;;;;5134355;27;20063;-42
2021/01/07 08:40:53;;;;;;;3.95;1.27;;;21.10;43.80;;;;;;5134997;27;20372;-41
2021/01/07 08:43:19;;;;;;;9.00;1.45;;;21.10;44.10;;;;;;5132781;27;20113;-53
2021/01/07 08:45:45;;;;;;;4.82;1.40;;;21.10;44.30;;;;;;5134079;27;20460;-42
2021/01/07 08:48:11;;;;;;;8.40;1.95;;;21.10;44.40;;;;;;5132486;27;20077;-41
2021/01/07 08:50:38;;;;;;;4.90;1.50;;;21.10;44.50;;;;;;5134273;27;20037;-50
2021/01/07 08:53:08;;;;;;;4.07;1.30;;;21.10;44.50;;;;;;5134004;27;20030;-45
2021/01/07 08:55:48;;;;;;;4.72;1.30;;;21.20;44.70;;;;;;5134709;27;20064;-43
2021/01/07 08:58:26;;;;;;;5.53;1.50;;;21.10;44.60;;;;;;5132993;27;20101;-47
2021/01/07 09:00:55;;;;;;;5.13;3.08;;;21.00;44.40;;;;;;5134242;27;20050;-38
2021/01/07 09:03:20;;;;;;;5.03;2.90;;;20.70;40.70;;;;;;5133817;27;20075;-39
2021/01/07 09:05:46;;;;;;;5.85;2.88;;;20.60;40.00;;;;;;5134595;27;20517;-43
2021/01/07 09:08:14;;;;;;;5.10;2.00;;;20.70;41.40;;;;;;5118262;27;20034;-46
2021/01/07 09:10:41;;;;;;;5.32;2.08;;;20.80;41.70;;;;;;5113291;28;20088;-41
2021/01/07 09:13:16;;;;;;;3.33;2.00;;;20.90;41.70;;;;;;5113139;28;20063;-42
2021/01/07 09:15:42;;;;;;;6.40;2.10;;;20.90;41.80;;;;;;5111988;28;20493;-38
2021/01/07 09:18:08;;;;;;;4.55;1.83;;;21.00;41.80;;;;;;5113009;28;20032;-38
2021/01/07 09:20:35;;;;;;;8.77;1.85;;;21.00;41.80;;;;;;5113558;28;20066;-41
2021/01/07 09:23:08;;;;;;;3.83;1.92;;;21.00;41.90;;;;;;5113463;28;20035;-56
2021/01/07 09:25:34;;;;;;;7.82;1.70;;;21.10;42.10;;;;;;5113571;28;20028;-37
2021/01/07 09:28:01;;;;;;;6.18;2.10;;;21.00;42.10;;;;;;5108860;27;20049;-56
2021/01/07 09:30:27;;;;;;;3.35;1.40;;;21.10;42.30;;;;;;5112587;28;20096;-43
2021/01/07 09:32:54;;;;;;;3.60;1.63;;;21.10;42.40;;;;;;5113198;28;20451;-42
2021/01/07 09:35:20;;;;;;;2.85;1.60;;;21.10;43.00;;;;;;5112663;28;20024;-46
2021/01/07 09:37:45;;;;;;;4.13;1.60;;;21.10;43.10;;;;;;5123152;27;20087;-39
2021/01/07 09:40:11;;;;;;;2.33;1.80;;;21.10;42.50;;;;;;5133387;27;20023;-41
2021/01/07 09:42:37;;;;;;;2.92;2.00;;;21.10;42.50;;;;;;5133530;27;20030;-42
2021/01/07 09:45:08;;;;;;;2.47;1.60;;;21.10;43.10;;;;;;5132015;27;20023;-51
2021/01/07 09:47:36;;;;;;;2.53;1.52;;;21.10;42.50;;;;;;5132599;27;20083;-44
2021/01/07 09:50:03;;;;;;;6.38;2.00;;;21.10;42.70;;;;;;5132278;27;20036;-52
2021/01/07 09:52:29;;;;;;;3.15;1.55;;;21.10;42.50;;;;;;5133205;27;20023;-43
2021/01/07 09:54:54;;;;;;;3.53;1.38;;;21.10;42.50;;;;;;5133546;27;20464;-38
2021/01/07 09:57:20;;;;;;;5.05;1.90;;;21.10;42.70;;;;;;5131407;27;20039;-39
2021/01/07 09:59:45;;;;;;;3.13;1.67;;;21.10;42.60;;;;;;5133557;27;20128;-41
2021/01/07 10:02:12;;;;;;;4.47;1.50;;;21.00;42.70;;;;;;5132433;27;20019;-39
2021/01/07 10:04:44;;;;;;;2.67;1.70;;;21.00;42.70;;;;;;5133046;27;20509;-34
2021/01/07 10:07:11;;;;;;;3.40;1.80;;;21.00;42.70;;;;;;5125777;27;20027;-41
2021/01/07 10:09:37;;;;;;;3.35;1.55;;;21.00;42.60;;;;;;5111649;28;20028;-56
2021/01/07 10:12:03;;;;;;;4.90;1.95;;;21.00;42.60;;;;;;5113563;27;20044;-56
2021/01/07 10:14:30;;;;;;;4.32;1.70;;;21.00;42.80;;;;;;5106228;28;20059;-49
2021/01/07 10:17:01;;;;;;;3.75;1.90;;;21.00;42.60;;;;;;5112582;28;20485;-44
2021/01/07 10:19:32;;;;;;;1.75;1.15;;;21.00;42.70;;;;;;5112523;28;20038;-41
2021/01/07 10:22:02;;;;;;;4.47;1.70;;;21.00;42.70;;;;;;5111397;28;20019;-41
2021/01/07 10:24:29;;;;;;;6.35;2.05;;;21.10;42.70;;;;;;5111735;28;20119;-38
2021/01/07 10:27:03;;;;;;;6.18;1.65;;;21.10;42.90;;;;;;5115658;27;22006;-35
2021/01/07 10:29:33;;;;;;;5.93;1.90;;;21.10;42.80;;;;;;5111921;27;20097;-36
2021/01/07 10:32:04;;;;;;;2.88;1.80;;;21.10;42.80;;;;;;5111963;28;20370;-35
2021/01/07 10:34:33;;;;;;;8.37;2.53;;;21.10;42.70;;;;;;5112219;28;20058;-41
2021/01/07 10:37:02;;;;;;;4.78;1.80;;;21.20;42.50;;;;;;5112146;28;20059;-44
2021/01/07 10:39:32;;;;;;;3.63;1.92;;;21.20;42.50;;;;;;5110629;28;20046;-40
2021/01/07 10:41:58;;;;;;;5.65;2.00;;;21.20;42.50;;;;;;5112313;28;20032;-38
2021/01/07 10:44:27;;;;;;;2.22;1.67;;;21.20;42.30;;;;;;5111836;28;20035;-39
2021/01/07 10:46:58;;;;;;;3.70;1.70;;;21.20;42.30;;;;;;5111869;28;20030;-38
2021/01/07 10:49:27;;;;;;;2.67;1.70;;;21.30;42.80;;;;;;5111401;28;20681;-38
2021/01/07 10:52:08;;;;;;;5.05;1.95;;;21.50;41.80;;;;;;5112117;28;20051;-41
2021/01/07 10:54:48;;;;;;;5.05;1.70;;;21.40;42.20;;;;;;5111946;28;20058;-41
2021/01/07 10:57:47;;;;;;;2.63;1.58;;;21.30;42.30;;;;;;5107912;28;20072;-38
2021/01/07 11:00:31;;;;;;;3.60;1.60;;;21.40;42.10;;;;;;5132850;27;20031;-39
2021/01/07 11:03:00;;;;;;;4.13;1.70;;;21.40;42.00;;;;;;5132802;27;20073;-41
2021/01/07 11:05:27;;;;;;;4.82;1.83;;;21.40;42.20;;;;;;5131952;27;20019;-39
2021/01/07 11:08:07;;;;;;;4.40;1.95;;;21.40;42.20;;;;;;5120412;27;20358;-40
2021/01/07 11:10:33;;;;;;;5.50;1.70;;;21.40;42.30;;;;;;5114509;28;20529;-48
2021/01/07 11:13:02;;;;;;;6.07;2.10;;;21.50;42.10;;;;;;5116082;28;20023;-40
2021/01/07 11:15:29;;;;;;;9.98;2.35;;;21.50;42.30;;;;;;5115381;28;20031;-40
2021/01/07 11:18:05;;;;;;;2.97;1.75;;;21.40;42.20;;;;;;5114600;28;20385;-40
2021/01/07 11:20:33;;;;;;;4.68;2.05;;;21.50;42.30;;;;;;5116074;28;20024;-43
2021/01/07 11:22:59;;;;;;;3.30;1.98;;;21.40;42.30;;;;;;5116165;28;20098;-38
2021/01/07 11:25:25;;;;;;;5.75;2.20;;;21.40;42.20;;;;;;5114660;28;20150;-43
2021/01/07 11:27:52;;;;;;;6.63;1.73;;;21.40;42.30;;;;;;5127747;27;20127;-38
2021/01/07 11:30:19;;;;;;;6.57;2.42;;;21.40;42.10;;;;;;5134427;27;20034;-38
2021/01/07 11:32:46;;;;;;;5.65;2.13;;;21.40;42.10;;;;;;5135993;27;20027;-51
2021/01/07 11:35:12;;;;;;;5.00;1.67;;;21.50;42.20;;;;;;5135231;27;20053;-38
2021/01/07 11:37:52;;;;;;;4.22;2.08;;;21.40;42.00;;;;;;5135688;27;20063;-40
2021/01/07 11:40:25;;;;;;;4.25;1.70;;;21.40;41.90;;;;;;5135447;27;20027;-39
2021/01/07 11:43:14;;;;;;;4.10;1.83;;;21.40;41.90;;;;;;5129328;27;20493;-41
2021/01/07 11:45:45;;;;;;;3.63;1.88;;;21.40;42.00;;;;;;5111019;28;20072;-43
2021/01/07 11:48:14;;;;;;;2.28;1.73;;;21.40;41.90;;;;;;5114547;28;20035;-50
2021/01/07 11:50:43;;;;;;;2.85;1.63;;;21.40;41.70;;;;;;5114891;28;20047;-40
2021/01/07 11:53:09;;;;;;;5.53;2.40;;;21.40;41.80;;;;;;5114504;28;20028;-56
2021/01/07 11:55:36;;;;;;;5.05;1.80;;;21.40;41.80;;;;;;5114801;28;20111;-40
2021/01/07 11:58:03;;;;;;;2.63;1.85;;;21.40;41.80;;;;;;5129171;27;20031;-40
2021/01/07 12:00:29;;;;;;;3.25;2.17;;;21.40;41.80;;;;;;5113816;27;20027;-45
2021/01/07 12:02:56;;;;;;;3.42;1.75;;;21.40;41.80;;;;;;5114409;28;20472;-43
2021/01/07 12:05:24;;;;;;;4.05;2.30;;;21.40;41.70;;;;;;5112552;28;20028;-38
2021/01/07 12:08:14;;;;;;;4.70;2.08;;;21.40;41.80;;;;;;5114653;28;20102;-42
2021/01/07 12:10:42;;;;;;;4.85;1.77;;;21.30;41.70;;;;;;5114828;27;20032;-38
2021/01/07 12:13:36;;;;;;;5.25;1.80;;;21.40;41.70;;;;;;5114466;28;20111;-53
2021/01/07 12:16:08;;;;;;;3.78;1.80;;;21.40;41.60;;;;;;5087539;28;20380;-38
2021/01/07 12:18:35;;;;;;;3.20;1.75;;;21.40;41.70;;;;;;5114404;28;20027;-39
2021/01/07 12:21:01;;;;;;;4.05;1.42;;;21.40;41.60;;;;;;5113487;28;20092;-39
2021/01/07 12:23:28;;;;;;;2.85;1.45;;;21.40;41.60;;;;;;5112743;28;20468;-39
2021/01/07 12:25:53;;;;;;;4.22;1.75;;;21.40;41.60;;;;;;5113461;28;20085;-38
2021/01/07 12:28:19;;;;;;;3.60;1.65;;;21.40;41.50;;;;;;5108058;27;20472;-39
2021/01/07 12:30:48;;;;;;;3.00;1.80;;;21.40;41.50;;;;;;5113797;28;20479;-46
2021/01/07 12:33:41;;;;;;;4.07;1.60;;;21.40;41.50;;;;;;5111979;28;20020;-39
2021/01/07 12:36:34;;;;;;;5.13;1.90;;;21.40;41.50;;;;;;5113557;28;20023;-52
2021/01/07 12:39:36;;;;;;;4.68;1.88;;;21.40;41.90;;;;;;5114065;28;20114;-38
2021/01/07 12:42:12;;;;;;;3.83;2.78;;;21.40;41.90;;;;;;5088771;28;20042;-40
2021/01/07 12:44:43;;;;;;;5.18;1.70;;;21.40;41.90;;;;;;5113966;28;20429;-40
2021/01/07 12:47:09;;;;;;;2.70;1.65;;;21.40;41.80;;;;;;5113751;28;20028;-56
2021/01/07 12:49:35;;;;;;;2.70;1.65;;;21.40;41.70;;;;;;5113806;28;20372;-38
2021/01/07 12:52:03;;;;;;;5.53;1.83;;;21.40;42.20;;;;;;5112526;28;20435;-40
2021/01/07 12:54:29;;;;;;;2.20;1.50;;;21.50;42.40;;;;;;5111630;28;20158;-43
2021/01/07 12:57:21;;;;;;;2.75;1.70;;;21.50;43.00;;;;;;5118581;27;20038;-39